Time;durP1;ratioP1;P1;durP2;ratioP2;P2;SDS_P1;SDS_P2;PMS_P1;PMS_P2;Temp;Humidity;BMP_temperature;BMP_pressure;BME280_temperature;BME280_humidity;BME280_pressure;Samples;Min_cycle;Max_cycle;Signal;HPM_P1;HPM_P2
2023/10/24 00:02:15;;;;;;;15.82;10.52;;;10.40;99.90;;;;;;7588839;19;20015;-74
2023/10/24 00:04:48;;;;;;;14.15;8.93;;;10.40;99.90;;;;;;7594459;19;20026;-74
2023/10/24 00:07:20;;;;;;;13.55;8.40;;;10.40;99.90;;;;;;7584559;19;20503;-73
2023/10/24 00:09:52;;;;;;;14.90;9.63;;;10.50;99.90;;;;;;7592931;19;20022;-73
2023/10/24 00:12:24;;;;;;;13.45;8.65;;;10.50;99.90;;;;;;7583803;19;20038;-74
2023/10/24 00:14:57;;;;;;;15.10;9.45;;;10.40;99.90;;;;;;7585039;19;20101;-74
2023/10/24 00:17:29;;;;;;;9.90;7.63;;;10.50;99.90;;;;;;7588858;19;20014;-74
2023/10/24 00:20:02;;;;;;;39.67;21.13;;;10.50;99.90;;;;;;7596737;19;20677;-73
2023/10/24 00:22:34;;;;;;;11.05;8.15;;;10.50;99.90;;;;;;7584894;19;20015;-73
2023/10/24 00:25:07;;;;;;;38.40;26.00;;;10.50;99.90;;;;;;7594185;19;20042;-73
2023/10/24 00:27:39;;;;;;;12.83;8.93;;;10.50;99.90;;;;;;7579215;19;20018;-74
2023/10/24 00:30:12;;;;;;;29.15;25.48;;;10.50;99.90;;;;;;7579864;19;20039;-72
2023/10/24 00:32:49;;;;;;;18.55;10.48;;;10.40;99.90;;;;;;7588618;19;20011;-72
2023/10/24 00:35:22;;;;;;;16.05;11.13;;;10.60;99.90;;;;;;7581377;19;21087;-72
2023/10/24 00:37:54;;;;;;;16.58;10.75;;;10.60;99.90;;;;;;7593589;19;20388;-72
2023/10/24 00:40:27;;;;;;;18.93;10.80;;;10.60;99.90;;;;;;7574192;19;20018;-72
2023/10/24 00:43:06;;;;;;;15.63;11.05;;;10.60;99.90;;;;;;7586170;19;20359;-72
2023/10/24 00:45:39;;;;;;;17.10;10.52;;;10.60;99.90;;;;;;7587706;19;20234;-72
2023/10/24 00:48:11;;;;;;;16.98;11.98;;;10.60;99.90;;;;;;7587921;19;20018;-72
2023/10/24 00:50:43;;;;;;;19.30;12.38;;;10.60;99.90;;;;;;7580743;19;20924;-72
2023/10/24 00:53:16;;;;;;;17.85;11.35;;;10.50;99.90;;;;;;7588496;19;20531;-72
2023/10/24 00:55:50;;;;;;;17.70;12.30;;;10.50;99.90;;;;;;7587415;19;20015;-72
2023/10/24 00:58:23;;;;;;;20.90;15.52;;;10.50;99.90;;;;;;7562179;19;20594;-72
2023/10/24 01:00:57;;;;;;;21.98;11.43;;;10.50;99.90;;;;;;7588930;19;20034;-72
2023/10/24 01:03:30;;;;;;;16.75;11.40;;;10.50;99.90;;;;;;7581559;19;20416;-72
2023/10/24 01:06:03;;;;;;;24.20;12.75;;;10.40;99.90;;;;;;7589966;19;20038;-74
2023/10/24 01:08:37;;;;;;;15.85;11.10;;;10.40;99.90;;;;;;7580577;19;20034;-72
2023/10/24 01:11:12;;;;;;;17.33;11.50;;;10.40;99.90;;;;;;7581488;19;20085;-72
2023/10/24 01:13:44;;;;;;;15.98;10.93;;;10.40;99.90;;;;;;7582943;19;20030;-72
2023/10/24 01:16:17;;;;;;;18.25;11.07;;;10.40;99.90;;;;;;7578730;19;20015;-72
2023/10/24 01:18:50;;;;;;;17.35;10.98;;;10.50;99.90;;;;;;7580516;19;20492;-72
2023/10/24 01:21:23;;;;;;;19.20;10.73;;;10.50;99.90;;;;;;7585355;19;20018;-72
2023/10/24 01:23:56;;;;;;;14.30;10.30;;;10.60;99.90;;;;;;7584843;19;20022;-72
2023/10/24 01:26:28;;;;;;;11.93;9.65;;;10.50;99.90;;;;;;7585640;19;20028;-72
2023/10/24 01:29:00;;;;;;;15.80;10.05;;;10.50;99.90;;;;;;7584634;19;20019;-72
2023/10/24 01:31:33;;;;;;;14.48;10.38;;;10.50;99.90;;;;;;7572987;19;20015;-72
2023/10/24 01:34:05;;;;;;;13.55;10.07;;;10.50;99.90;;;;;;7594261;19;20014;-71
2023/10/24 01:36:37;;;;;;;13.93;9.82;;;10.40;99.90;;;;;;7587651;19;20544;-73
2023/10/24 01:39:11;;;;;;;12.68;9.02;;;10.40;99.90;;;;;;7596552;19;20022;-71
2023/10/24 01:41:43;;;;;;;14.65;9.90;;;10.30;99.90;;;;;;7587813;19;20723;-72
2023/10/24 01:44:16;;;;;;;15.70;10.27;;;10.30;99.90;;;;;;7587425;19;20499;-72
2023/10/24 01:46:49;;;;;;;14.98;8.98;;;10.30;99.90;;;;;;7588205;19;22527;-71
2023/10/24 01:49:21;;;;;;;20.25;11.30;;;10.30;99.90;;;;;;7575519;19;20017;-73
2023/10/24 01:51:53;;;;;;;18.50;12.75;;;10.30;99.90;;;;;;7569214;19;20026;-72
2023/10/24 01:54:25;;;;;;;20.83;11.77;;;10.30;99.90;;;;;;7576744;19;20024;-71
2023/10/24 01:56:57;;;;;;;16.85;10.45;;;10.30;99.90;;;;;;7573016;19;20022;-72
2023/10/24 01:59:30;;;;;;;14.63;10.13;;;10.30;99.90;;;;;;7534107;19;20025;-70
2023/10/24 02:02:02;;;;;;;15.15;9.80;;;10.30;99.90;;;;;;7570025;19;20010;-71
2023/10/24 02:04:35;;;;;;;14.00;9.70;;;10.20;99.90;;;;;;7558363;19;20014;-72
2023/10/24 02:07:09;;;;;;;13.80;9.50;;;10.20;99.90;;;;;;7580138;19;20306;-72
2023/10/24 02:09:41;;;;;;;14.60;8.75;;;10.10;99.90;;;;;;7570384;19;20017;-71
2023/10/24 02:12:13;;;;;;;14.35;8.40;;;10.10;99.90;;;;;;7565474;19;20010;-71
2023/10/24 02:14:46;;;;;;;12.52;8.07;;;10.00;99.90;;;;;;7568314;19;20024;-73
2023/10/24 02:17:18;;;;;;;11.95;8.70;;;10.00;99.90;;;;;;7575587;19;20038;-71
2023/10/24 02:19:53;;;;;;;14.60;9.15;;;10.00;99.90;;;;;;7563261;19;20019;-74
2023/10/24 02:22:25;;;;;;;12.90;8.73;;;9.90;99.90;;;;;;7571281;19;20010;-73
2023/10/24 02:24:57;;;;;;;13.93;9.32;;;9.90;99.90;;;;;;7577985;19;20022;-73
2023/10/24 02:27:32;;;;;;;14.02;8.95;;;9.90;99.90;;;;;;7566186;19;20086;-73
2023/10/24 02:30:05;;;;;;;12.93;8.80;;;9.80;99.90;;;;;;7572930;19;20017;-73
2023/10/24 02:32:38;;;;;;;12.90;9.40;;;9.80;99.90;;;;;;7566041;19;20026;-73
2023/10/24 02:35:11;;;;;;;14.52;10.07;;;9.70;99.90;;;;;;7563272;19;20014;-74
2023/10/24 02:37:44;;;;;;;13.60;9.13;;;9.70;99.90;;;;;;7575039;19;20380;-74
2023/10/24 02:40:17;;;;;;;17.53;10.23;;;9.70;99.90;;;;;;7577852;19;20277;-73
2023/10/24 02:42:51;;;;;;;17.58;9.45;;;9.80;99.90;;;;;;7567211;19;20015;-73
2023/10/24 02:45:24;;;;;;;17.85;9.85;;;9.70;99.90;;;;;;7579124;19;20109;-74
2023/10/24 02:47:56;;;;;;;13.35;9.27;;;9.60;99.90;;;;;;7575204;19;20102;-73
2023/10/24 02:50:29;;;;;;;12.52;9.32;;;9.50;99.90;;;;;;7578257;19;20151;-73
2023/10/24 02:53:06;;;;;;;77.15;15.30;;;9.40;99.90;;;;;;7584058;19;20018;-73
2023/10/24 02:55:39;;;;;;;12.70;9.57;;;9.40;99.90;;;;;;7592732;19;20046;-73
2023/10/24 02:58:11;;;;;;;13.65;9.60;;;9.40;99.90;;;;;;7600635;19;20021;-73
2023/10/24 03:00:44;;;;;;;11.32;8.38;;;9.40;99.90;;;;;;7586376;19;20018;-74
2023/10/24 03:03:17;;;;;;;11.65;8.77;;;9.40;99.90;;;;;;7597625;19;20110;-72
2023/10/24 03:05:49;;;;;;;12.45;8.35;;;9.40;99.90;;;;;;7581551;19;25417;-73
2023/10/24 03:08:21;;;;;;;16.23;10.13;;;9.40;99.90;;;;;;7588574;19;20021;-73
2023/10/24 03:10:54;;;;;;;17.73;8.93;;;9.30;99.90;;;;;;7589237;19;20052;-73
2023/10/24 03:13:26;;;;;;;15.60;8.90;;;9.20;99.90;;;;;;7602849;19;20491;-72
2023/10/24 03:16:05;;;;;;;13.68;9.52;;;9.30;99.90;;;;;;7588381;19;20022;-73
2023/10/24 03:18:37;;;;;;;18.52;10.13;;;9.40;99.90;;;;;;7575196;19;20022;-72
2023/10/24 03:21:10;;;;;;;16.00;10.23;;;9.30;99.90;;;;;;7577809;19;20368;-72
2023/10/24 03:23:45;;;;;;;18.15;11.13;;;9.30;99.90;;;;;;7577014;19;20093;-72
2023/10/24 03:26:19;;;;;;;12.68;8.85;;;9.30;99.90;;;;;;7571998;19;20432;-72
2023/10/24 03:28:51;;;;;;;;;;;9.30;99.90;;;;;;7569846;19;20292;-73
2023/10/24 03:31:25;;;;;;;12.80;9.20;;;9.20;99.90;;;;;;7570492;19;19926;-73
2023/10/24 03:33:57;;;;;;;15.05;9.50;;;9.20;99.90;;;;;;7567178;19;20042;-75
2023/10/24 03:36:29;;;;;;;13.25;9.00;;;9.20;99.90;;;;;;7562286;19;20034;-74
2023/10/24 03:39:03;;;;;;;14.07;9.73;;;9.20;99.90;;;;;;7569682;19;20498;-75
2023/10/24 03:41:36;;;;;;;13.30;9.17;;;9.20;99.90;;;;;;7570421;19;20022;-75
2023/10/24 03:44:08;;;;;;;11.80;8.68;;;9.10;99.90;;;;;;7580014;19;20018;-75
2023/10/24 03:46:40;;;;;;;16.80;10.00;;;9.10;99.90;;;;;;7572468;19;20026;-75
2023/10/24 03:49:13;;;;;;;16.63;9.15;;;9.10;99.90;;;;;;7559902;19;20123;-74
2023/10/24 03:51:46;;;;;;;11.02;8.52;;;9.20;99.90;;;;;;7560634;19;20021;-74
2023/10/24 03:54:18;;;;;;;17.13;10.15;;;9.20;99.90;;;;;;7575945;19;20666;-74
2023/10/24 03:56:51;;;;;;;17.25;9.18;;;9.20;99.90;;;;;;7575581;19;20055;-73
2023/10/24 03:59:24;;;;;;;14.02;9.38;;;9.30;99.90;;;;;;7550174;19;20022;-73
2023/10/24 04:01:56;;;;;;;13.05;9.45;;;9.20;99.90;;;;;;7539257;19;20014;-74
2023/10/24 04:04:30;;;;;;;12.65;9.13;;;9.20;99.90;;;;;;7562272;19;20022;-75
2023/10/24 04:07:04;;;;;;;17.35;8.90;;;9.20;99.90;;;;;;7570717;19;20369;-75
2023/10/24 04:09:37;;;;;;;13.85;9.07;;;9.20;99.90;;;;;;7562679;19;20022;-74
2023/10/24 04:12:10;;;;;;;;;;;9.20;99.90;;;;;;7531893;19;20010;-74
2023/10/24 04:14:42;;;;;;;12.95;9.18;;;9.20;99.90;;;;;;7566698;19;20504;-74
2023/10/24 04:17:14;;;;;;;13.13;7.82;;;9.20;99.90;;;;;;7569173;19;20019;-74
2023/10/24 04:19:47;;;;;;;15.68;9.65;;;9.20;99.90;;;;;;7549946;19;20018;-73
2023/10/24 04:22:19;;;;;;;13.88;8.85;;;9.20;99.90;;;;;;7549578;19;20022;-72
2023/10/24 04:24:51;;;;;;;14.85;8.27;;;9.20;99.90;;;;;;7566044;19;22398;-73
2023/10/24 04:27:24;;;;;;;14.20;9.23;;;9.20;99.90;;;;;;7561410;19;20075;-75
2023/10/24 04:29:57;;;;;;;18.15;8.88;;;9.20;99.90;;;;;;7548283;19;20018;-75
2023/10/24 04:32:30;;;;;;;12.82;9.55;;;9.20;99.90;;;;;;7570760;19;20022;-75
2023/10/24 04:35:05;;;;;;;13.77;8.60;;;9.20;99.90;;;;;;7545555;19;20751;-75
2023/10/24 04:37:39;;;;;;;12.20;8.23;;;9.20;99.90;;;;;;7557557;19;20022;-75
2023/10/24 04:40:12;;;;;;;17.35;9.23;;;9.20;99.90;;;;;;7568758;19;20019;-75
2023/10/24 04:42:45;;;;;;;11.30;7.97;;;9.20;99.90;;;;;;7555907;19;20201;-75
2023/10/24 04:45:17;;;;;;;16.83;8.75;;;9.20;99.90;;;;;;7559335;19;20018;-72
2023/10/24 04:47:49;;;;;;;18.45;8.32;;;9.20;99.90;;;;;;7539455;19;20007;-76
2023/10/24 04:50:22;;;;;;;19.05;7.88;;;9.20;99.90;;;;;;7546417;19;20014;-75
2023/10/24 04:52:55;;;;;;;16.92;7.80;;;9.20;99.90;;;;;;7536658;19;20037;-74
2023/10/24 04:55:28;;;;;;;424.25;90.28;;;9.20;99.90;;;;;;7559781;19;20354;-72
2023/10/24 04:58:02;;;;;;;15.77;7.95;;;9.30;99.90;;;;;;7550134;19;20109;-74
2023/10/24 05:00:34;;;;;;;;;;;9.30;99.90;;;;;;7556518;19;20113;-72
2023/10/24 05:03:07;;;;;;;129.02;45.67;;;9.30;99.90;;;;;;7551608;19;20640;-74
2023/10/24 05:05:39;;;;;;;13.97;6.67;;;9.30;99.90;;;;;;7548552;19;21014;-74
2023/10/24 05:08:12;;;;;;;13.65;6.90;;;9.20;99.90;;;;;;7559706;19;20399;-74
2023/10/24 05:10:46;;;;;;;10.57;6.47;;;9.20;99.90;;;;;;7564347;19;20361;-75
2023/10/24 05:13:19;;;;;;;17.35;6.40;;;9.30;99.90;;;;;;7546843;19;20446;-75
2023/10/24 05:15:51;;;;;;;17.52;7.03;;;9.40;99.90;;;;;;7540559;19;20064;-74
2023/10/24 05:18:24;;;;;;;11.27;7.57;;;9.30;99.90;;;;;;7573162;19;20120;-73
2023/10/24 05:20:59;;;;;;;110.95;13.95;;;9.30;99.90;;;;;;7552745;19;20289;-74
2023/10/24 05:23:31;;;;;;;40.38;29.48;;;9.30;99.90;;;;;;7554842;19;20557;-73
2023/10/24 05:26:04;;;;;;;17.05;7.47;;;9.30;99.90;;;;;;7541663;19;21134;-75
2023/10/24 05:28:36;;;;;;;10.93;6.70;;;9.30;99.90;;;;;;7522577;19;20382;-75
2023/10/24 05:31:09;;;;;;;8.25;6.13;;;9.30;99.90;;;;;;7560876;19;20023;-75
2023/10/24 05:33:41;;;;;;;10.95;6.72;;;9.40;99.90;;;;;;7566689;19;20818;-75
2023/10/24 05:36:18;;;;;;;15.50;8.27;;;9.40;99.90;;;;;;7550715;19;20415;-75
2023/10/24 05:38:50;;;;;;;16.27;6.95;;;9.50;99.90;;;;;;7548817;19;20132;-75
2023/10/24 05:41:22;;;;;;;14.90;6.45;;;9.40;99.90;;;;;;7579812;19;20015;-75
2023/10/24 05:43:55;;;;;;;12.20;7.75;;;9.40;99.90;;;;;;7586942;19;20420;-75
2023/10/24 05:46:28;;;;;;;12.32;7.00;;;9.50;99.90;;;;;;7606135;19;20905;-75
2023/10/24 05:49:00;;;;;;;15.03;7.40;;;9.60;99.90;;;;;;7574106;19;20380;-75
2023/10/24 05:51:33;;;;;;;10.90;5.93;;;9.60;99.90;;;;;;7594719;19;20166;-75
2023/10/24 05:54:05;;;;;;;11.25;6.00;;;9.60;99.90;;;;;;7586183;19;20564;-75
2023/10/24 05:56:38;;;;;;;14.75;7.18;;;9.60;99.90;;;;;;7576698;19;20018;-75
2023/10/24 05:59:10;;;;;;;16.23;7.25;;;9.60;99.90;;;;;;7577662;19;20087;-75
2023/10/24 06:01:42;;;;;;;11.98;6.50;;;9.60;99.90;;;;;;7592089;19;20006;-75
2023/10/24 06:04:14;;;;;;;10.93;5.97;;;9.60;99.90;;;;;;7599617;19;21135;-75
2023/10/24 06:06:47;;;;;;;12.93;6.93;;;9.60;99.90;;;;;;7595509;19;20010;-75
2023/10/24 06:09:20;;;;;;;15.93;7.60;;;9.60;99.90;;;;;;7595687;19;20098;-75
2023/10/24 06:11:52;;;;;;;17.00;7.15;;;9.60;99.90;;;;;;7600898;19;20275;-75
2023/10/24 06:14:24;;;;;;;11.95;7.32;;;9.60;99.90;;;;;;7605332;19;20054;-75
2023/10/24 06:16:56;;;;;;;26.48;13.18;;;9.60;99.90;;;;;;7600802;19;20026;-75
2023/10/24 06:19:29;;;;;;;23.25;9.02;;;9.60;99.90;;;;;;7601645;19;20034;-75
2023/10/24 06:22:02;;;;;;;22.63;13.80;;;9.70;99.90;;;;;;7589128;19;20334;-75
2023/10/24 06:24:34;;;;;;;20.85;12.50;;;9.60;99.90;;;;;;7603167;19;20636;-75
2023/10/24 06:27:09;;;;;;;22.23;10.23;;;9.60;99.90;;;;;;7602100;19;20019;-75
2023/10/24 06:29:41;;;;;;;19.83;9.77;;;9.70;99.90;;;;;;7590473;19;21490;-74
2023/10/24 06:32:14;;;;;;;16.05;7.70;;;9.60;99.90;;;;;;7606258;19;20607;-74
2023/10/24 06:34:46;;;;;;;16.80;7.43;;;9.70;99.90;;;;;;7614156;19;20029;-75
2023/10/24 06:37:19;;;;;;;18.77;6.82;;;9.80;99.90;;;;;;7608599;19;20018;-75
2023/10/24 06:39:51;;;;;;;12.15;6.22;;;9.80;99.90;;;;;;7605757;19;20014;-75
2023/10/24 06:42:24;;;;;;;19.70;6.75;;;9.80;99.90;;;;;;7614637;19;20014;-75
2023/10/24 06:44:56;;;;;;;13.40;6.68;;;9.80;99.90;;;;;;7612612;19;20014;-75
2023/10/24 06:47:29;;;;;;;16.00;5.73;;;9.90;99.90;;;;;;7617211;19;20018;-75
2023/10/24 06:50:03;;;;;;;10.93;5.60;;;10.00;99.90;;;;;;7611025;19;20023;-75
2023/10/24 06:52:35;;;;;;;11.70;5.80;;;10.00;99.90;;;;;;7614904;19;20011;-75
2023/10/24 06:55:08;;;;;;;15.90;6.18;;;10.00;99.90;;;;;;7607839;19;22397;-75
2023/10/24 06:57:41;;;;;;;15.43;6.18;;;10.10;99.90;;;;;;7617225;19;20598;-75
2023/10/24 07:00:13;;;;;;;20.58;6.55;;;10.10;99.90;;;;;;7611043;19;20026;-75
2023/10/24 07:02:46;;;;;;;19.35;7.93;;;10.10;99.90;;;;;;7616400;19;20014;-75
2023/10/24 07:05:21;;;;;;;17.88;7.90;;;10.20;99.90;;;;;;7601739;19;20044;-75
2023/10/24 07:07:54;;;;;;;16.23;7.57;;;10.20;99.90;;;;;;7607328;19;20022;-75
2023/10/24 07:10:26;;;;;;;13.82;7.13;;;10.20;99.90;;;;;;7611592;19;20057;-75
2023/10/24 07:12:58;;;;;;;19.33;7.60;;;10.20;99.90;;;;;;7607493;19;20059;-75
2023/10/24 07:15:31;;;;;;;18.42;8.10;;;10.30;99.90;;;;;;7608816;19;20085;-75
2023/10/24 07:18:03;;;;;;;13.13;7.45;;;10.30;99.90;;;;;;7610583;19;20007;-75
2023/10/24 07:20:36;;;;;;;15.73;8.02;;;10.40;99.90;;;;;;7614726;19;20748;-75
2023/10/24 07:23:09;;;;;;;18.25;9.00;;;10.40;99.90;;;;;;7610900;19;20054;-75
2023/10/24 07:25:41;;;;;;;21.35;9.13;;;10.40;99.90;;;;;;7615036;19;20597;-75
2023/10/24 07:28:13;;;;;;;19.38;6.55;;;10.50;99.90;;;;;;7608753;19;20018;-75
2023/10/24 07:30:51;;;;;;;13.98;6.88;;;10.50;99.90;;;;;;7606425;19;20014;-74
2023/10/24 07:33:23;;;;;;;18.95;7.43;;;10.50;99.90;;;;;;7609484;19;20018;-75
2023/10/24 07:36:03;;;;;;;19.27;7.25;;;10.60;99.90;;;;;;7611208;19;20052;-75
2023/10/24 07:38:35;;;;;;;15.57;8.27;;;10.60;99.90;;;;;;7613741;19;20047;-75
2023/10/24 07:41:08;;;;;;;18.60;8.02;;;10.60;99.90;;;;;;7608250;19;20107;-74
2023/10/24 07:43:40;;;;;;;18.00;8.63;;;10.70;99.90;;;;;;7613301;19;20395;-74
2023/10/24 07:46:13;;;;;;;16.67;8.23;;;10.70;99.90;;;;;;7608417;19;20006;-74
2023/10/24 07:48:45;;;;;;;16.85;8.25;;;10.70;99.90;;;;;;7612200;19;20021;-73
2023/10/24 07:51:17;;;;;;;16.15;7.70;;;10.80;99.90;;;;;;7607798;19;20010;-74
2023/10/24 07:53:49;;;;;;;19.58;8.52;;;10.90;99.90;;;;;;7610668;19;20018;-74
2023/10/24 07:56:22;;;;;;;23.25;9.57;;;10.80;99.90;;;;;;7605182;19;20030;-74
2023/10/24 07:58:54;;;;;;;21.23;9.48;;;10.90;99.90;;;;;;7605752;19;20042;-74
2023/10/24 08:01:27;;;;;;;25.27;9.68;;;10.80;99.90;;;;;;7609382;19;20018;-74
2023/10/24 08:03:59;;;;;;;29.45;9.68;;;10.90;99.90;;;;;;7608378;19;20639;-74
2023/10/24 08:06:31;;;;;;;26.08;9.45;;;10.90;99.90;;;;;;7579301;19;20018;-74
2023/10/24 08:09:04;;;;;;;20.75;9.38;;;11.00;99.90;;;;;;7602748;19;20109;-75
2023/10/24 08:11:36;;;;;;;21.07;8.90;;;11.00;99.90;;;;;;7609062;19;20014;-74
2023/10/24 08:14:09;;;;;;;28.38;10.02;;;11.10;99.90;;;;;;7608929;19;20342;-74
2023/10/24 08:16:42;;;;;;;23.75;9.20;;;11.10;99.90;;;;;;7606118;19;20579;-74
2023/10/24 08:19:14;;;;;;;28.80;9.73;;;11.10;99.90;;;;;;7607190;19;20010;-74
2023/10/24 08:21:46;;;;;;;23.13;9.35;;;11.10;99.90;;;;;;7611339;19;20019;-74
2023/10/24 08:24:18;;;;;;;22.00;10.10;;;11.20;99.90;;;;;;7605251;19;20051;-74
2023/10/24 08:26:51;;;;;;;24.10;10.68;;;11.20;99.90;;;;;;7610712;19;20108;-74
2023/10/24 08:29:41;;;;;;;25.67;10.45;;;11.20;99.90;;;;;;7608594;19;20019;-74
2023/10/24 08:32:14;;;;;;;20.95;10.10;;;11.20;99.90;;;;;;7607663;19;20014;-74
2023/10/24 08:34:46;;;;;;;25.37;10.50;;;11.20;99.90;;;;;;7611000;19;20026;-74
2023/10/24 08:37:19;;;;;;;21.83;9.93;;;11.30;99.90;;;;;;7603870;19;20018;-74
2023/10/24 08:39:51;;;;;;;24.40;12.32;;;11.30;99.90;;;;;;7609292;19;20059;-74
2023/10/24 08:42:25;;;;;;;26.00;12.10;;;11.30;99.90;;;;;;7598135;19;21252;-75
2023/10/24 08:44:59;;;;;;;26.67;12.60;;;11.40;99.90;;;;;;7598093;19;20551;-74
2023/10/24 08:47:34;;;;;;;30.33;11.85;;;11.40;99.90;;;;;;7600232;19;20021;-74
2023/10/24 08:50:07;;;;;;;26.80;13.95;;;11.40;99.90;;;;;;7608020;19;20515;-74
2023/10/24 08:52:40;;;;;;;25.40;13.27;;;11.40;99.90;;;;;;7587257;19;20022;-74
2023/10/24 08:55:12;;;;;;;29.67;14.73;;;11.40;99.90;;;;;;7584853;19;20416;-74
2023/10/24 08:57:46;;;;;;;29.90;14.23;;;11.40;99.90;;;;;;7587653;19;21342;-74
2023/10/24 09:00:19;;;;;;;27.48;13.55;;;11.40;99.90;;;;;;7595162;19;20118;-74
2023/10/24 09:02:52;;;;;;;199.07;32.63;;;11.40;99.90;;;;;;7593705;19;20508;-74
2023/10/24 09:05:29;;;;;;;26.13;13.00;;;11.40;99.90;;;;;;7560155;19;20019;-74
2023/10/24 09:08:02;;;;;;;25.88;13.55;;;11.40;99.90;;;;;;7589568;19;20011;-74
2023/10/24 09:10:34;;;;;;;23.07;12.60;;;11.50;99.90;;;;;;7574182;19;20026;-74
2023/10/24 09:13:07;;;;;;;27.27;12.02;;;11.50;99.90;;;;;;7578486;19;20007;-74
2023/10/24 09:15:39;;;;;;;33.67;13.32;;;11.50;99.90;;;;;;7592752;19;21017;-74
2023/10/24 09:18:11;;;;;;;28.52;15.15;;;11.60;99.90;;;;;;7605049;19;20025;-74
2023/10/24 09:20:45;;;;;;;28.08;14.68;;;11.60;99.90;;;;;;7610456;19;20098;-74
2023/10/24 09:23:17;;;;;;;;;;;11.50;99.90;;;;;;7605868;19;20014;-74
2023/10/24 09:25:50;;;;;;;137.43;22.92;;;11.50;99.90;;;;;;7608232;19;19914;-74
2023/10/24 09:28:22;;;;;;;29.45;16.17;;;11.50;99.90;;;;;;7607460;19;20770;-73
2023/10/24 09:30:55;;;;;;;26.67;15.95;;;11.50;99.90;;;;;;7599743;19;21013;-74
2023/10/24 09:33:28;;;;;;;24.98;15.68;;;11.50;99.90;;;;;;7596954;19;20018;-74
2023/10/24 09:36:00;;;;;;;25.03;16.50;;;11.60;99.90;;;;;;7606277;19;20025;-74
2023/10/24 09:38:48;;;;;;;29.95;15.63;;;11.50;99.90;;;;;;7600269;19;20018;-74
2023/10/24 09:41:20;;;;;;;30.45;17.25;;;11.50;99.90;;;;;;7594032;19;20048;-74
2023/10/24 09:43:55;;;;;;;28.40;18.30;;;11.50;99.90;;;;;;7584809;19;20034;-74
2023/10/24 09:46:28;;;;;;;25.17;16.35;;;11.50;99.90;;;;;;7594114;19;20056;-74
2023/10/24 09:49:46;;;;;;;38.03;17.38;;;11.50;99.90;;;;;;7528736;19;20550;-74
2023/10/24 09:52:20;;;;;;;29.43;17.27;;;11.50;99.90;;;;;;7593192;19;20668;-74
2023/10/24 09:54:53;;;;;;;30.20;17.92;;;11.50;99.90;;;;;;7601451;19;20450;-74
2023/10/24 09:57:26;;;;;;;32.33;19.73;;;11.50;99.90;;;;;;7605130;19;20022;-74
2023/10/24 09:59:59;;;;;;;24.67;16.98;;;11.50;99.90;;;;;;7594027;19;20022;-74
2023/10/24 10:02:34;;;;;;;28.77;18.83;;;11.50;99.90;;;;;;7601645;19;20211;-74
2023/10/24 10:05:07;;;;;;;36.20;19.05;;;11.50;99.90;;;;;;7560410;19;20706;-74
2023/10/24 10:07:41;;;;;;;30.60;18.88;;;11.60;99.90;;;;;;7541291;19;20018;-74
2023/10/24 10:10:15;;;;;;;34.58;17.65;;;11.60;99.90;;;;;;7566537;19;20021;-74
2023/10/24 10:12:50;;;;;;;27.05;17.92;;;11.70;99.90;;;;;;7602054;19;20018;-74
2023/10/24 10:15:44;;;;;;;33.47;18.83;;;11.70;99.90;;;;;;7595778;19;20056;-74
2023/10/24 10:18:37;;;;;;;;;;;11.80;99.90;;;;;;7566412;19;20025;-74
2023/10/24 10:21:17;;;;;;;33.42;16.90;;;11.80;99.90;;;;;;7584133;19;19919;-74
2023/10/24 10:24:02;;;;;;;29.23;18.00;;;11.80;99.90;;;;;;7587385;19;20014;-74
2023/10/24 10:26:59;;;;;;;29.80;17.70;;;11.80;99.90;;;;;;7590542;19;20015;-74
2023/10/24 10:30:02;;;;;;;26.13;16.83;;;11.80;99.90;;;;;;7592354;19;20086;-74
2023/10/24 10:33:16;;;;;;;26.38;17.25;;;11.80;99.90;;;;;;7585250;19;20022;-74
2023/10/24 10:35:48;;;;;;;36.08;17.92;;;11.90;99.90;;;;;;7582867;19;20018;-74
2023/10/24 10:38:39;;;;;;;29.00;18.90;;;11.90;99.90;;;;;;7563884;19;20032;-74
2023/10/24 10:41:22;;;;;;;33.67;19.17;;;11.90;99.90;;;;;;7583621;19;20033;-74
2023/10/24 10:43:59;;;;;;;31.80;19.90;;;11.90;99.90;;;;;;7597435;19;20014;-73
2023/10/24 10:46:33;;;;;;;36.70;20.17;;;11.90;99.90;;;;;;7580859;19;25308;-73
2023/10/24 10:49:07;;;;;;;36.42;22.15;;;11.90;99.90;;;;;;7572471;19;20460;-73
2023/10/24 10:51:39;;;;;;;32.53;21.67;;;11.80;99.90;;;;;;7592493;19;20020;-74
2023/10/24 10:54:17;;;;;;;33.75;22.15;;;11.80;99.90;;;;;;7603029;19;20042;-74
2023/10/24 10:56:50;;;;;;;31.25;21.08;;;11.70;99.90;;;;;;7612855;19;20081;-74
2023/10/24 10:59:44;;;;;;;38.33;21.20;;;11.70;99.90;;;;;;7608694;19;20014;-74
2023/10/24 11:02:55;;;;;;;35.22;22.02;;;11.70;99.90;;;;;;7602252;19;20010;-73
2023/10/24 11:05:37;;;;;;;35.90;23.10;;;11.70;99.90;;;;;;7597020;19;20573;-73
2023/10/24 11:08:20;;;;;;;36.58;22.55;;;11.80;99.90;;;;;;7584765;19;20022;-73
2023/10/24 11:10:56;;;;;;;41.75;23.67;;;11.70;99.90;;;;;;7604425;19;20023;-74
2023/10/24 11:13:47;;;;;;;66.38;37.47;;;11.80;99.90;;;;;;7605798;19;20018;-74
2023/10/24 11:16:19;;;;;;;37.72;24.50;;;11.90;99.90;;;;;;7593621;19;20686;-74
2023/10/24 11:19:24;;;;;;;32.95;21.85;;;11.80;99.90;;;;;;7609073;19;20365;-74
2023/10/24 11:21:57;;;;;;;38.65;25.40;;;11.80;99.90;;;;;;7606589;19;20026;-73
2023/10/24 11:24:30;;;;;;;41.75;25.30;;;11.90;99.90;;;;;;7598109;19;20014;-74
2023/10/24 11:27:04;;;;;;;37.50;24.27;;;11.90;99.90;;;;;;7587557;19;20773;-73
2023/10/24 11:29:37;;;;;;;44.80;25.90;;;11.90;99.90;;;;;;7583547;19;20023;-74
2023/10/24 11:32:10;;;;;;;46.50;28.25;;;11.90;99.90;;;;;;7585753;19;20014;-74
2023/10/24 11:34:43;;;;;;;39.63;26.33;;;12.00;99.90;;;;;;7592658;19;20025;-74
2023/10/24 11:37:16;;;;;;;51.88;30.58;;;12.00;99.90;;;;;;7590685;19;20015;-74
2023/10/24 11:39:51;;;;;;;46.55;30.08;;;11.90;99.90;;;;;;7573224;19;20265;-74
2023/10/24 11:42:24;;;;;;;46.08;27.25;;;11.90;99.90;;;;;;7577265;19;20105;-74
2023/10/24 11:44:56;;;;;;;40.53;26.70;;;11.90;99.90;;;;;;7586304;19;20059;-74
2023/10/24 11:47:29;;;;;;;48.93;30.43;;;12.00;99.90;;;;;;7578538;19;20113;-74
2023/10/24 11:50:01;;;;;;;54.90;31.85;;;11.90;99.90;;;;;;7573753;19;20018;-74
2023/10/24 11:52:34;;;;;;;48.47;28.92;;;11.90;99.90;;;;;;7570497;19;20015;-74
2023/10/24 11:55:07;;;;;;;42.55;29.02;;;11.90;99.90;;;;;;7573939;19;20094;-74
2023/10/24 11:57:40;;;;;;;51.10;32.13;;;11.90;99.90;;;;;;7587753;19;20011;-73
2023/10/24 12:00:16;;;;;;;47.17;30.60;;;11.90;99.90;;;;;;7587226;19;20678;-75
2023/10/24 12:02:48;;;;;;;57.88;35.35;;;11.90;99.90;;;;;;7587511;19;20275;-75
2023/10/24 12:05:21;;;;;;;60.03;36.63;;;11.80;99.90;;;;;;7585292;19;20015;-75
2023/10/24 12:07:55;;;;;;;63.83;35.33;;;11.90;99.90;;;;;;7583261;19;20022;-75
2023/10/24 12:10:29;;;;;;;56.17;38.22;;;11.80;99.90;;;;;;7575082;19;20019;-75
2023/10/24 12:13:03;;;;;;;62.17;38.95;;;11.70;99.90;;;;;;7576476;19;20021;-75
2023/10/24 12:15:37;;;;;;;65.97;39.20;;;11.80;99.90;;;;;;7574046;19;20060;-75
2023/10/24 12:18:09;;;;;;;63.17;38.33;;;11.70;99.90;;;;;;7591833;19;20018;-75
2023/10/24 12:20:42;;;;;;;61.88;39.10;;;11.80;99.90;;;;;;7595444;19;20048;-76
2023/10/24 12:23:16;;;;;;;66.78;39.95;;;11.80;99.90;;;;;;7596143;19;20118;-76
2023/10/24 12:25:50;;;;;;;64.90;39.22;;;11.90;99.90;;;;;;7585343;19;20705;-75
2023/10/24 12:28:23;;;;;;;70.65;41.85;;;11.90;99.90;;;;;;7562937;19;20014;-75
2023/10/24 12:30:55;;;;;;;62.58;38.88;;;12.00;99.90;;;;;;7581853;19;20011;-75
2023/10/24 12:33:28;;;;;;;62.60;37.88;;;12.00;99.90;;;;;;7596486;19;20113;-76
2023/10/24 12:36:01;;;;;;;60.42;38.58;;;12.10;99.90;;;;;;7601375;19;20046;-75
2023/10/24 12:38:34;;;;;;;70.15;40.85;;;12.10;99.90;;;;;;7593347;19;20022;-75
2023/10/24 12:41:07;;;;;;;65.30;40.13;;;12.20;99.90;;;;;;7592455;19;20586;-75
2023/10/24 12:43:39;;;;;;;58.95;39.03;;;12.10;99.90;;;;;;7577249;19;20093;-75
2023/10/24 12:46:13;;;;;;;56.65;37.15;;;12.20;99.90;;;;;;7600008;19;20010;-75
2023/10/24 12:48:45;;;;;;;61.55;39.05;;;12.20;99.90;;;;;;7593000;19;20014;-75
2023/10/24 12:51:32;;;;;;;61.00;39.53;;;12.20;99.90;;;;;;7598149;19;20094;-75
2023/10/24 12:54:04;;;;;;;58.30;38.13;;;12.20;99.90;;;;;;7602505;19;20019;-74
2023/10/24 12:56:37;;;;;;;69.45;43.17;;;12.20;99.90;;;;;;7598113;19;20098;-73
2023/10/24 12:59:10;;;;;;;72.95;45.15;;;12.20;99.90;;;;;;7596648;19;20025;-74
2023/10/24 13:01:42;;;;;;;66.82;42.80;;;12.00;99.90;;;;;;7596125;19;20019;-73
2023/10/24 13:04:15;;;;;;;78.32;46.85;;;12.00;99.90;;;;;;7597642;19;20010;-75
2023/10/24 13:06:47;;;;;;;72.03;45.20;;;12.00;99.90;;;;;;7598282;19;20034;-73
2023/10/24 13:09:27;;;;;;;78.95;47.17;;;11.90;99.90;;;;;;7597460;19;20145;-73
2023/10/24 13:12:00;;;;;;;72.05;45.60;;;12.00;99.90;;;;;;7600934;19;20502;-72